sensor_id;sensor_type;location;lat;lon;timestamp;P1;durP1;ratioP1;P2;durP2;ratioP2
5191;SDS011;2615;44.524;11.284;2023-08-20T00:00:52;17.07;;;11.57;;
5191;SDS011;2615;44.524;11.284;2023-08-20T00:03:21;13.50;;;10.13;;
5191;SDS011;2615;44.524;11.284;2023-08-20T00:05:49;12.70;;;10.53;;
5191;SDS011;2615;44.524;11.284;2023-08-20T00:08:18;13.03;;;11.33;;
5191;SDS011;2615;44.524;11.284;2023-08-20T00:10:46;13.23;;;11.83;;
5191;SDS011;2615;44.524;11.284;2023-08-20T00:13:14;13.90;;;11.37;;
5191;SDS011;2615;44.524;11.284;2023-08-20T00:15:44;14.30;;;12.13;;
5191;SDS011;2615;44.524;11.284;2023-08-20T00:18:13;14.37;;;11.60;;
5191;SDS011;2615;44.524;11.284;2023-08-20T00:20:42;12.93;;;11.63;;
5191;SDS011;2615;44.524;11.284;2023-08-20T00:23:12;15.03;;;10.73;;
5191;SDS011;2615;44.524;11.284;2023-08-20T00:25:41;14.67;;;12.07;;
5191;SDS011;2615;44.524;11.284;2023-08-20T00:28:11;12.73;;;11.43;;
5191;SDS011;2615;44.524;11.284;2023-08-20T00:30:40;14.00;;;10.60;;
5191;SDS011;2615;44.524;11.284;2023-08-20T00:33:09;13.90;;;12.50;;
5191;SDS011;2615;44.524;11.284;2023-08-20T00:35:37;13.40;;;11.00;;
5191;SDS011;2615;44.524;11.284;2023-08-20T00:38:06;14.40;;;11.67;;
5191;SDS011;2615;44.524;11.284;2023-08-20T00:40:34;12.87;;;11.03;;
5191;SDS011;2615;44.524;11.284;2023-08-20T00:43:02;14.57;;;11.80;;
5191;SDS011;2615;44.524;11.284;2023-08-20T00:45:30;12.50;;;10.03;;
5191;SDS011;2615;44.524;11.284;2023-08-20T00:47:58;14.40;;;11.43;;
5191;SDS011;2615;44.524;11.284;2023-08-20T00:50:28;12.33;;;11.03;;
5191;SDS011;2615;44.524;11.284;2023-08-20T00:52:56;17.73;;;11.23;;
5191;SDS011;2615;44.524;11.284;2023-08-20T00:55:24;18.00;;;12.20;;
5191;SDS011;2615;44.524;11.284;2023-08-20T00:57:53;14.03;;;11.30;;
5191;SDS011;2615;44.524;11.284;2023-08-20T01:00:21;13.20;;;11.27;;
5191;SDS011;2615;44.524;11.284;2023-08-20T01:02:51;20.60;;;12.17;;
5191;SDS011;2615;44.524;11.284;2023-08-20T01:05:19;14.90;;;12.60;;
5191;SDS011;2615;44.524;11.284;2023-08-20T01:10:47;18.43;;;11.40;;
5191;SDS011;2615;44.524;11.284;2023-08-20T01:13:20;15.07;;;11.80;;
5191;SDS011;2615;44.524;11.284;2023-08-20T01:15:48;13.30;;;11.90;;
5191;SDS011;2615;44.524;11.284;2023-08-20T01:18:17;18.60;;;12.97;;
5191;SDS011;2615;44.524;11.284;2023-08-20T01:20:45;12.90;;;11.60;;
5191;SDS011;2615;44.524;11.284;2023-08-20T01:23:24;12.60;;;11.27;;
5191;SDS011;2615;44.524;11.284;2023-08-20T01:26:07;19.10;;;14.17;;
5191;SDS011;2615;44.524;11.284;2023-08-20T01:28:51;13.50;;;11.90;;
5191;SDS011;2615;44.524;11.284;2023-08-20T01:31:19;13.13;;;11.73;;
5191;SDS011;2615;44.524;11.284;2023-08-20T01:33:48;16.10;;;11.73;;
5191;SDS011;2615;44.524;11.284;2023-08-20T01:36:17;15.80;;;12.73;;
5191;SDS011;2615;44.524;11.284;2023-08-20T01:38:45;12.93;;;11.03;;
5191;SDS011;2615;44.524;11.284;2023-08-20T01:41:13;13.23;;;11.77;;
5191;SDS011;2615;44.524;11.284;2023-08-20T01:43:41;15.13;;;11.90;;
5191;SDS011;2615;44.524;11.284;2023-08-20T01:46:10;15.60;;;11.77;;
5191;SDS011;2615;44.524;11.284;2023-08-20T01:48:39;16.17;;;12.83;;
5191;SDS011;2615;44.524;11.284;2023-08-20T01:51:07;13.27;;;11.90;;
5191;SDS011;2615;44.524;11.284;2023-08-20T01:53:36;14.43;;;11.10;;
5191;SDS011;2615;44.524;11.284;2023-08-20T01:56:04;13.10;;;11.17;;
5191;SDS011;2615;44.524;11.284;2023-08-20T01:58:37;12.80;;;10.67;;
5191;SDS011;2615;44.524;11.284;2023-08-20T02:01:05;14.27;;;11.33;;
5191;SDS011;2615;44.524;11.284;2023-08-20T02:03:35;12.20;;;10.37;;
5191;SDS011;2615;44.524;11.284;2023-08-20T02:06:04;14.43;;;11.70;;
5191;SDS011;2615;44.524;11.284;2023-08-20T02:08:32;13.83;;;11.73;;
5191;SDS011;2615;44.524;11.284;2023-08-20T02:11:01;14.00;;;12.60;;
5191;SDS011;2615;44.524;11.284;2023-08-20T02:13:30;16.60;;;11.80;;
5191;SDS011;2615;44.524;11.284;2023-08-20T02:15:59;19.37;;;12.00;;
5191;SDS011;2615;44.524;11.284;2023-08-20T02:18:28;16.03;;;11.80;;
5191;SDS011;2615;44.524;11.284;2023-08-20T02:20:57;16.40;;;10.63;;
5191;SDS011;2615;44.524;11.284;2023-08-20T02:23:26;14.63;;;12.10;;
5191;SDS011;2615;44.524;11.284;2023-08-20T02:25:54;13.90;;;10.87;;
5191;SDS011;2615;44.524;11.284;2023-08-20T02:28:22;13.07;;;11.67;;
5191;SDS011;2615;44.524;11.284;2023-08-20T02:30:50;13.97;;;10.70;;
5191;SDS011;2615;44.524;11.284;2023-08-20T02:33:18;16.30;;;13.00;;
5191;SDS011;2615;44.524;11.284;2023-08-20T02:35:46;14.90;;;12.03;;
5191;SDS011;2615;44.524;11.284;2023-08-20T02:38:16;16.33;;;11.07;;
5191;SDS011;2615;44.524;11.284;2023-08-20T02:40:44;12.80;;;11.50;;
5191;SDS011;2615;44.524;11.284;2023-08-20T02:43:12;17.33;;;11.77;;
5191;SDS011;2615;44.524;11.284;2023-08-20T02:45:41;13.87;;;12.37;;
5191;SDS011;2615;44.524;11.284;2023-08-20T02:48:09;17.87;;;11.47;;
5191;SDS011;2615;44.524;11.284;2023-08-20T02:50:38;16.10;;;12.47;;
5191;SDS011;2615;44.524;11.284;2023-08-20T02:53:06;13.67;;;11.90;;
5191;SDS011;2615;44.524;11.284;2023-08-20T02:55:36;13.50;;;11.20;;
5191;SDS011;2615;44.524;11.284;2023-08-20T02:58:04;12.83;;;11.30;;
5191;SDS011;2615;44.524;11.284;2023-08-20T03:00:34;15.57;;;11.43;;
5191;SDS011;2615;44.524;11.284;2023-08-20T03:03:03;12.90;;;11.50;;
5191;SDS011;2615;44.524;11.284;2023-08-20T03:05:34;13.80;;;12.10;;
5191;SDS011;2615;44.524;11.284;2023-08-20T03:08:02;12.87;;;11.10;;
5191;SDS011;2615;44.524;11.284;2023-08-20T03:10:32;13.83;;;11.33;;
5191;SDS011;2615;44.524;11.284;2023-08-20T03:13:02;12.90;;;11.60;;
5191;SDS011;2615;44.524;11.284;2023-08-20T03:15:30;17.03;;;12.27;;
5191;SDS011;2615;44.524;11.284;2023-08-20T03:17:58;19.67;;;12.47;;
5191;SDS011;2615;44.524;11.284;2023-08-20T03:20:26;14.07;;;11.40;;
5191;SDS011;2615;44.524;11.284;2023-08-20T03:22:57;11.90;;;10.70;;
5191;SDS011;2615;44.524;11.284;2023-08-20T03:25:25;18.73;;;13.10;;
5191;SDS011;2615;44.524;11.284;2023-08-20T03:27:54;12.10;;;10.90;;
5191;SDS011;2615;44.524;11.284;2023-08-20T03:30:24;14.57;;;12.60;;
5191;SDS011;2615;44.524;11.284;2023-08-20T03:32:52;14.90;;;12.07;;
5191;SDS011;2615;44.524;11.284;2023-08-20T03:35:20;15.03;;;12.63;;
5191;SDS011;2615;44.524;11.284;2023-08-20T03:37:48;15.30;;;12.03;;
5191;SDS011;2615;44.524;11.284;2023-08-20T03:40:17;14.40;;;11.50;;
5191;SDS011;2615;44.524;11.284;2023-08-20T03:42:45;14.00;;;12.50;;
5191;SDS011;2615;44.524;11.284;2023-08-20T03:45:13;15.50;;;11.90;;
5191;SDS011;2615;44.524;11.284;2023-08-20T03:47:43;13.80;;;12.30;;
5191;SDS011;2615;44.524;11.284;2023-08-20T03:50:13;16.77;;;12.30;;
5191;SDS011;2615;44.524;11.284;2023-08-20T03:52:41;13.57;;;11.20;;
5191;SDS011;2615;44.524;11.284;2023-08-20T03:55:10;14.77;;;12.90;;
5191;SDS011;2615;44.524;11.284;2023-08-20T03:57:38;17.33;;;12.33;;
5191;SDS011;2615;44.524;11.284;2023-08-20T04:00:06;15.07;;;12.30;;
5191;SDS011;2615;44.524;11.284;2023-08-20T04:02:36;17.13;;;12.70;;
5191;SDS011;2615;44.524;11.284;2023-08-20T04:05:06;18.27;;;12.73;;
5191;SDS011;2615;44.524;11.284;2023-08-20T04:07:35;15.80;;;12.33;;
5191;SDS011;2615;44.524;11.284;2023-08-20T04:10:03;19.33;;;12.00;;
5191;SDS011;2615;44.524;11.284;2023-08-20T04:12:32;19.03;;;12.40;;
5191;SDS011;2615;44.524;11.284;2023-08-20T04:15:00;15.60;;;12.13;;
5191;SDS011;2615;44.524;11.284;2023-08-20T04:17:29;17.77;;;13.47;;
5191;SDS011;2615;44.524;11.284;2023-08-20T04:19:57;13.47;;;11.43;;
5191;SDS011;2615;44.524;11.284;2023-08-20T04:22:26;12.77;;;11.37;;
5191;SDS011;2615;44.524;11.284;2023-08-20T04:24:56;15.23;;;11.97;;
5191;SDS011;2615;44.524;11.284;2023-08-20T04:27:24;13.93;;;12.10;;
5191;SDS011;2615;44.524;11.284;2023-08-20T04:29:52;15.40;;;11.90;;
5191;SDS011;2615;44.524;11.284;2023-08-20T04:32:21;15.30;;;11.27;;
5191;SDS011;2615;44.524;11.284;2023-08-20T04:34:49;13.73;;;11.70;;
5191;SDS011;2615;44.524;11.284;2023-08-20T04:37:18;16.43;;;11.53;;
5191;SDS011;2615;44.524;11.284;2023-08-20T04:39:48;17.97;;;12.80;;
5191;SDS011;2615;44.524;11.284;2023-08-20T04:42:16;13.00;;;11.60;;
5191;SDS011;2615;44.524;11.284;2023-08-20T04:44:44;19.00;;;12.50;;
5191;SDS011;2615;44.524;11.284;2023-08-20T04:47:12;17.63;;;12.07;;
5191;SDS011;2615;44.524;11.284;2023-08-20T04:49:41;15.60;;;11.80;;
5191;SDS011;2615;44.524;11.284;2023-08-20T04:52:09;15.47;;;10.50;;
5191;SDS011;2615;44.524;11.284;2023-08-20T04:54:37;17.80;;;12.20;;
5191;SDS011;2615;44.524;11.284;2023-08-20T04:57:06;26.67;;;12.30;;
5191;SDS011;2615;44.524;11.284;2023-08-20T04:59:34;12.50;;;10.83;;
5191;SDS011;2615;44.524;11.284;2023-08-20T05:02:02;15.90;;;12.77;;
5191;SDS011;2615;44.524;11.284;2023-08-20T05:04:31;15.27;;;11.97;;
5191;SDS011;2615;44.524;11.284;2023-08-20T05:06:59;14.10;;;12.70;;
5191;SDS011;2615;44.524;11.284;2023-08-20T05:09:28;16.40;;;13.53;;
5191;SDS011;2615;44.524;11.284;2023-08-20T05:11:56;16.47;;;11.60;;
5191;SDS011;2615;44.524;11.284;2023-08-20T05:14:25;14.40;;;10.70;;
5191;SDS011;2615;44.524;11.284;2023-08-20T05:16:53;14.93;;;11.20;;
5191;SDS011;2615;44.524;11.284;2023-08-20T05:19:21;16.97;;;11.37;;
5191;SDS011;2615;44.524;11.284;2023-08-20T05:21:50;16.60;;;11.27;;
5191;SDS011;2615;44.524;11.284;2023-08-20T05:24:19;19.63;;;11.17;;
5191;SDS011;2615;44.524;11.284;2023-08-20T05:26:47;18.50;;;11.63;;
5191;SDS011;2615;44.524;11.284;2023-08-20T05:29:17;18.33;;;11.97;;
5191;SDS011;2615;44.524;11.284;2023-08-20T05:31:46;15.60;;;12.40;;
5191;SDS011;2615;44.524;11.284;2023-08-20T05:34:15;41.87;;;14.30;;
5191;SDS011;2615;44.524;11.284;2023-08-20T05:36:43;17.00;;;11.40;;
5191;SDS011;2615;44.524;11.284;2023-08-20T05:39:11;39.50;;;15.70;;
5191;SDS011;2615;44.524;11.284;2023-08-20T05:41:39;15.60;;;11.73;;
5191;SDS011;2615;44.524;11.284;2023-08-20T05:44:07;12.97;;;10.70;;
5191;SDS011;2615;44.524;11.284;2023-08-20T05:46:35;17.13;;;11.87;;
5191;SDS011;2615;44.524;11.284;2023-08-20T05:49:06;16.03;;;11.37;;
5191;SDS011;2615;44.524;11.284;2023-08-20T05:51:34;17.87;;;12.03;;
5191;SDS011;2615;44.524;11.284;2023-08-20T05:54:02;14.40;;;11.73;;
5191;SDS011;2615;44.524;11.284;2023-08-20T05:56:30;14.67;;;12.20;;
5191;SDS011;2615;44.524;11.284;2023-08-20T05:58:58;12.47;;;11.10;;
5191;SDS011;2615;44.524;11.284;2023-08-20T06:01:27;13.90;;;11.27;;
5191;SDS011;2615;44.524;11.284;2023-08-20T06:03:55;14.73;;;12.53;;
5191;SDS011;2615;44.524;11.284;2023-08-20T06:06:24;12.77;;;11.20;;
5191;SDS011;2615;44.524;11.284;2023-08-20T06:08:53;13.23;;;10.73;;
5191;SDS011;2615;44.524;11.284;2023-08-20T06:11:34;16.33;;;12.00;;
5191;SDS011;2615;44.524;11.284;2023-08-20T06:14:03;14.10;;;11.33;;
5191;SDS011;2615;44.524;11.284;2023-08-20T06:16:31;12.70;;;11.03;;
5191;SDS011;2615;44.524;11.284;2023-08-20T06:18:59;11.00;;;9.90;;
5191;SDS011;2615;44.524;11.284;2023-08-20T06:21:31;16.47;;;11.30;;
5191;SDS011;2615;44.524;11.284;2023-08-20T06:24:00;12.60;;;11.13;;
5191;SDS011;2615;44.524;11.284;2023-08-20T06:26:29;15.27;;;11.50;;
5191;SDS011;2615;44.524;11.284;2023-08-20T06:28:57;17.80;;;11.30;;
5191;SDS011;2615;44.524;11.284;2023-08-20T06:31:25;13.70;;;11.13;;
5191;SDS011;2615;44.524;11.284;2023-08-20T06:33:53;15.37;;;11.47;;
5191;SDS011;2615;44.524;11.284;2023-08-20T06:36:21;13.63;;;10.50;;
5191;SDS011;2615;44.524;11.284;2023-08-20T06:38:51;15.47;;;12.13;;
5191;SDS011;2615;44.524;11.284;2023-08-20T06:41:19;15.10;;;12.43;;
5191;SDS011;2615;44.524;11.284;2023-08-20T06:43:47;11.27;;;10.07;;
5191;SDS011;2615;44.524;11.284;2023-08-20T06:46:15;15.17;;;11.93;;
5191;SDS011;2615;44.524;11.284;2023-08-20T06:48:43;18.57;;;11.40;;
5191;SDS011;2615;44.524;11.284;2023-08-20T06:51:12;22.83;;;12.00;;
5191;SDS011;2615;44.524;11.284;2023-08-20T06:53:40;13.50;;;10.17;;
5191;SDS011;2615;44.524;11.284;2023-08-20T06:56:10;16.17;;;10.53;;
5191;SDS011;2615;44.524;11.284;2023-08-20T06:58:39;12.63;;;9.90;;
5191;SDS011;2615;44.524;11.284;2023-08-20T07:01:08;14.50;;;11.37;;
5191;SDS011;2615;44.524;11.284;2023-08-20T07:03:38;14.97;;;11.27;;
5191;SDS011;2615;44.524;11.284;2023-08-20T07:06:07;11.70;;;10.43;;
5191;SDS011;2615;44.524;11.284;2023-08-20T07:08:36;15.20;;;12.13;;
5191;SDS011;2615;44.524;11.284;2023-08-20T07:11:05;12.20;;;11.00;;
5191;SDS011;2615;44.524;11.284;2023-08-20T07:13:35;11.93;;;10.20;;
5191;SDS011;2615;44.524;11.284;2023-08-20T07:16:03;12.43;;;10.03;;
5191;SDS011;2615;44.524;11.284;2023-08-20T07:18:32;13.57;;;9.73;;
5191;SDS011;2615;44.524;11.284;2023-08-20T07:21:00;12.77;;;10.47;;
5191;SDS011;2615;44.524;11.284;2023-08-20T07:23:28;14.70;;;11.30;;
5191;SDS011;2615;44.524;11.284;2023-08-20T07:26:03;13.53;;;10.67;;
5191;SDS011;2615;44.524;11.284;2023-08-20T07:28:33;12.93;;;11.00;;
5191;SDS011;2615;44.524;11.284;2023-08-20T07:31:20;15.30;;;11.20;;
5191;SDS011;2615;44.524;11.284;2023-08-20T07:33:48;13.17;;;11.87;;
5191;SDS011;2615;44.524;11.284;2023-08-20T07:36:19;15.20;;;11.70;;
5191;SDS011;2615;44.524;11.284;2023-08-20T07:38:49;13.70;;;10.13;;
5191;SDS011;2615;44.524;11.284;2023-08-20T07:41:17;12.27;;;10.33;;
5191;SDS011;2615;44.524;11.284;2023-08-20T07:43:46;14.83;;;11.10;;
5191;SDS011;2615;44.524;11.284;2023-08-20T07:46:16;17.43;;;12.43;;
5191;SDS011;2615;44.524;11.284;2023-08-20T07:48:46;13.27;;;10.63;;
5191;SDS011;2615;44.524;11.284;2023-08-20T07:51:14;13.57;;;12.07;;
5191;SDS011;2615;44.524;11.284;2023-08-20T07:53:42;16.10;;;11.50;;
5191;SDS011;2615;44.524;11.284;2023-08-20T07:56:10;12.77;;;11.47;;
5191;SDS011;2615;44.524;11.284;2023-08-20T07:58:38;16.23;;;12.03;;
5191;SDS011;2615;44.524;11.284;2023-08-20T08:01:06;15.83;;;10.77;;
5191;SDS011;2615;44.524;11.284;2023-08-20T08:03:35;15.47;;;12.30;;
5191;SDS011;2615;44.524;11.284;2023-08-20T08:06:04;13.33;;;11.93;;
5191;SDS011;2615;44.524;11.284;2023-08-20T08:08:32;14.10;;;11.37;;
5191;SDS011;2615;44.524;11.284;2023-08-20T08:11:02;24.53;;;12.87;;
5191;SDS011;2615;44.524;11.284;2023-08-20T08:13:30;13.77;;;12.37;;
5191;SDS011;2615;44.524;11.284;2023-08-20T08:15:58;13.47;;;12.07;;
5191;SDS011;2615;44.524;11.284;2023-08-20T08:18:26;18.93;;;13.10;;
5191;SDS011;2615;44.524;11.284;2023-08-20T08:20:54;16.00;;;11.90;;
5191;SDS011;2615;44.524;11.284;2023-08-20T08:23:24;13.47;;;12.10;;
5191;SDS011;2615;44.524;11.284;2023-08-20T08:25:52;13.00;;;11.60;;
5191;SDS011;2615;44.524;11.284;2023-08-20T08:28:20;14.80;;;13.30;;
5191;SDS011;2615;44.524;11.284;2023-08-20T08:30:48;17.40;;;11.90;;
5191;SDS011;2615;44.524;11.284;2023-08-20T08:33:16;17.83;;;13.00;;
5191;SDS011;2615;44.524;11.284;2023-08-20T08:35:44;12.93;;;11.60;;
5191;SDS011;2615;44.524;11.284;2023-08-20T08:38:12;14.77;;;13.07;;
5191;SDS011;2615;44.524;11.284;2023-08-20T08:40:42;15.63;;;11.80;;
5191;SDS011;2615;44.524;11.284;2023-08-20T08:43:10;13.03;;;10.80;;
5191;SDS011;2615;44.524;11.284;2023-08-20T08:45:44;19.27;;;12.20;;
5191;SDS011;2615;44.524;11.284;2023-08-20T08:48:14;13.60;;;11.17;;
5191;SDS011;2615;44.524;11.284;2023-08-20T08:50:43;12.60;;;10.60;;
5191;SDS011;2615;44.524;11.284;2023-08-20T08:53:11;14.37;;;12.67;;
5191;SDS011;2615;44.524;11.284;2023-08-20T08:55:42;17.00;;;11.30;;
5191;SDS011;2615;44.524;11.284;2023-08-20T08:58:10;14.53;;;11.30;;
5191;SDS011;2615;44.524;11.284;2023-08-20T09:00:38;16.50;;;12.03;;
5191;SDS011;2615;44.524;11.284;2023-08-20T09:03:07;14.23;;;12.70;;
5191;SDS011;2615;44.524;11.284;2023-08-20T09:05:45;13.67;;;12.27;;
5191;SDS011;2615;44.524;11.284;2023-08-20T09:08:20;14.40;;;12.37;;
5191;SDS011;2615;44.524;11.284;2023-08-20T09:10:51;12.93;;;11.63;;
5191;SDS011;2615;44.524;11.284;2023-08-20T09:13:22;21.43;;;12.50;;
5191;SDS011;2615;44.524;11.284;2023-08-20T09:15:51;14.53;;;10.83;;
5191;SDS011;2615;44.524;11.284;2023-08-20T09:18:20;25.07;;;12.10;;
5191;SDS011;2615;44.524;11.284;2023-08-20T09:20:48;14.10;;;12.80;;
5191;SDS011;2615;44.524;11.284;2023-08-20T09:23:16;23.00;;;12.70;;
5191;SDS011;2615;44.524;11.284;2023-08-20T09:25:45;12.87;;;11.57;;
5191;SDS011;2615;44.524;11.284;2023-08-20T09:28:14;13.93;;;12.30;;
5191;SDS011;2615;44.524;11.284;2023-08-20T09:30:54;15.33;;;13.07;;
5191;SDS011;2615;44.524;11.284;2023-08-20T09:33:23;15.90;;;12.80;;
5191;SDS011;2615;44.524;11.284;2023-08-20T09:35:51;12.70;;;11.40;;
5191;SDS011;2615;44.524;11.284;2023-08-20T09:38:20;16.80;;;12.03;;
5191;SDS011;2615;44.524;11.284;2023-08-20T09:40:50;13.17;;;11.37;;
5191;SDS011;2615;44.524;11.284;2023-08-20T09:43:20;14.33;;;11.27;;
5191;SDS011;2615;44.524;11.284;2023-08-20T09:45:52;12.50;;;11.20;;
5191;SDS011;2615;44.524;11.284;2023-08-20T09:48:22;12.73;;;11.43;;
5191;SDS011;2615;44.524;11.284;2023-08-20T09:50:56;14.40;;;11.53;;
5191;SDS011;2615;44.524;11.284;2023-08-20T09:53:30;17.70;;;13.00;;
5191;SDS011;2615;44.524;11.284;2023-08-20T09:56:03;14.00;;;12.50;;
5191;SDS011;2615;44.524;11.284;2023-08-20T09:58:38;12.70;;;11.40;;
5191;SDS011;2615;44.524;11.284;2023-08-20T10:01:07;12.90;;;11.70;;
5191;SDS011;2615;44.524;11.284;2023-08-20T10:03:35;15.90;;;11.90;;
5191;SDS011;2615;44.524;11.284;2023-08-20T10:06:05;12.30;;;11.10;;
5191;SDS011;2615;44.524;11.284;2023-08-20T10:08:33;13.67;;;12.37;;
5191;SDS011;2615;44.524;11.284;2023-08-20T10:11:02;13.10;;;11.53;;
5191;SDS011;2615;44.524;11.284;2023-08-20T10:13:30;13.20;;;11.90;;
5191;SDS011;2615;44.524;11.284;2023-08-20T10:16:00;13.20;;;12.00;;
5191;SDS011;2615;44.524;11.284;2023-08-20T10:18:29;13.27;;;11.87;;
5191;SDS011;2615;44.524;11.284;2023-08-20T10:20:58;13.57;;;12.23;;
5191;SDS011;2615;44.524;11.284;2023-08-20T10:23:29;12.23;;;11.00;;
5191;SDS011;2615;44.524;11.284;2023-08-20T10:26:06;12.63;;;11.43;;
5191;SDS011;2615;44.524;11.284;2023-08-20T10:28:35;13.63;;;12.03;;
5191;SDS011;2615;44.524;11.284;2023-08-20T10:31:08;13.23;;;11.80;;
5191;SDS011;2615;44.524;11.284;2023-08-20T10:33:38;14.40;;;13.00;;
5191;SDS011;2615;44.524;11.284;2023-08-20T10:36:16;13.17;;;11.77;;
5191;SDS011;2615;44.524;11.284;2023-08-20T10:38:49;16.30;;;12.27;;
5191;SDS011;2615;44.524;11.284;2023-08-20T10:41:24;12.53;;;11.00;;
5191;SDS011;2615;44.524;11.284;2023-08-20T10:43:53;12.97;;;11.73;;
5191;SDS011;2615;44.524;11.284;2023-08-20T10:46:26;13.53;;;12.23;;
5191;SDS011;2615;44.524;11.284;2023-08-20T10:48:57;12.63;;;11.33;;
5191;SDS011;2615;44.524;11.284;2023-08-20T10:51:26;12.37;;;10.70;;
5191;SDS011;2615;44.524;11.284;2023-08-20T10:54:02;12.70;;;10.90;;
5191;SDS011;2615;44.524;11.284;2023-08-20T10:56:38;11.43;;;10.30;;
5191;SDS011;2615;44.524;11.284;2023-08-20T10:59:08;12.47;;;11.27;;
5191;SDS011;2615;44.524;11.284;2023-08-20T11:01:41;11.40;;;10.30;;
5191;SDS011;2615;44.524;11.284;2023-08-20T11:04:11;11.40;;;10.30;;
5191;SDS011;2615;44.524;11.284;2023-08-20T11:06:41;12.77;;;11.43;;
5191;SDS011;2615;44.524;11.284;2023-08-20T11:09:10;14.83;;;10.70;;
5191;SDS011;2615;44.524;11.284;2023-08-20T11:11:38;12.97;;;9.60;;
5191;SDS011;2615;44.524;11.284;2023-08-20T11:14:08;11.90;;;10.33;;
5191;SDS011;2615;44.524;11.284;2023-08-20T11:16:42;12.00;;;10.57;;
5191;SDS011;2615;44.524;11.284;2023-08-20T11:19:11;12.97;;;11.07;;
5191;SDS011;2615;44.524;11.284;2023-08-20T11:21:40;11.50;;;10.40;;
5191;SDS011;2615;44.524;11.284;2023-08-20T11:24:10;13.70;;;11.40;;
5191;SDS011;2615;44.524;11.284;2023-08-20T11:26:39;11.47;;;10.27;;
5191;SDS011;2615;44.524;11.284;2023-08-20T11:29:09;10.40;;;9.50;;
5191;SDS011;2615;44.524;11.284;2023-08-20T11:31:38;11.33;;;10.13;;
5191;SDS011;2615;44.524;11.284;2023-08-20T11:34:08;11.07;;;10.07;;
5191;SDS011;2615;44.524;11.284;2023-08-20T11:36:38;16.97;;;10.60;;
5191;SDS011;2615;44.524;11.284;2023-08-20T11:39:07;11.63;;;10.57;;
5191;SDS011;2615;44.524;11.284;2023-08-20T11:41:35;12.00;;;9.90;;
5191;SDS011;2615;44.524;11.284;2023-08-20T11:44:05;11.60;;;10.40;;
5191;SDS011;2615;44.524;11.284;2023-08-20T11:46:41;13.17;;;10.67;;
5191;SDS011;2615;44.524;11.284;2023-08-20T11:49:12;10.33;;;9.23;;
5191;SDS011;2615;44.524;11.284;2023-08-20T11:51:41;12.13;;;10.13;;
5191;SDS011;2615;44.524;11.284;2023-08-20T11:54:12;10.77;;;9.87;;
5191;SDS011;2615;44.524;11.284;2023-08-20T11:56:42;17.70;;;9.70;;
5191;SDS011;2615;44.524;11.284;2023-08-20T11:59:13;11.17;;;9.10;;
5191;SDS011;2615;44.524;11.284;2023-08-20T12:01:42;11.63;;;10.43;;
5191;SDS011;2615;44.524;11.284;2023-08-20T12:04:12;10.77;;;9.80;;
5191;SDS011;2615;44.524;11.284;2023-08-20T12:06:41;12.33;;;11.10;;
5191;SDS011;2615;44.524;11.284;2023-08-20T12:09:19;11.53;;;10.43;;
5191;SDS011;2615;44.524;11.284;2023-08-20T12:11:48;13.00;;;10.47;;
5191;SDS011;2615;44.524;11.284;2023-08-20T12:14:17;11.47;;;10.47;;
5191;SDS011;2615;44.524;11.284;2023-08-20T12:16:46;11.73;;;10.63;;
5191;SDS011;2615;44.524;11.284;2023-08-20T12:19:15;12.90;;;10.83;;
5191;SDS011;2615;44.524;11.284;2023-08-20T12:21:44;10.70;;;9.80;;
5191;SDS011;2615;44.524;11.284;2023-08-20T12:24:12;11.00;;;9.90;;
5191;SDS011;2615;44.524;11.284;2023-08-20T12:26:41;10.20;;;8.67;;
5191;SDS011;2615;44.524;11.284;2023-08-20T12:29:09;16.63;;;11.03;;
5191;SDS011;2615;44.524;11.284;2023-08-20T12:31:38;10.43;;;9.43;;
5191;SDS011;2615;44.524;11.284;2023-08-20T12:34:06;10.93;;;9.93;;
5191;SDS011;2615;44.524;11.284;2023-08-20T12:36:37;10.20;;;9.20;;
5191;SDS011;2615;44.524;11.284;2023-08-20T12:39:05;11.10;;;9.90;;
5191;SDS011;2615;44.524;11.284;2023-08-20T12:41:34;10.10;;;9.20;;
5191;SDS011;2615;44.524;11.284;2023-08-20T12:44:03;10.77;;;9.67;;
5191;SDS011;2615;44.524;11.284;2023-08-20T12:46:32;12.07;;;10.83;;
5191;SDS011;2615;44.524;11.284;2023-08-20T12:49:00;11.10;;;10.10;;
5191;SDS011;2615;44.524;11.284;2023-08-20T12:51:28;10.90;;;9.87;;
5191;SDS011;2615;44.524;11.284;2023-08-20T12:53:57;10.70;;;9.80;;
5191;SDS011;2615;44.524;11.284;2023-08-20T12:56:26;9.90;;;9.00;;
5191;SDS011;2615;44.524;11.284;2023-08-20T12:58:54;10.80;;;9.80;;
5191;SDS011;2615;44.524;11.284;2023-08-20T13:01:22;11.63;;;9.43;;
5191;SDS011;2615;44.524;11.284;2023-08-20T13:03:50;10.43;;;9.30;;
5191;SDS011;2615;44.524;11.284;2023-08-20T13:06:19;11.03;;;9.90;;
5191;SDS011;2615;44.524;11.284;2023-08-20T13:08:48;18.23;;;10.07;;
5191;SDS011;2615;44.524;11.284;2023-08-20T13:11:18;11.53;;;10.33;;
5191;SDS011;2615;44.524;11.284;2023-08-20T13:13:49;12.20;;;10.37;;
5191;SDS011;2615;44.524;11.284;2023-08-20T13:16:18;12.63;;;11.33;;
5191;SDS011;2615;44.524;11.284;2023-08-20T13:18:47;11.50;;;9.63;;
5191;SDS011;2615;44.524;11.284;2023-08-20T13:21:15;13.83;;;9.50;;
5191;SDS011;2615;44.524;11.284;2023-08-20T13:23:43;10.90;;;9.70;;
5191;SDS011;2615;44.524;11.284;2023-08-20T13:26:12;10.17;;;9.10;;
5191;SDS011;2615;44.524;11.284;2023-08-20T13:28:41;12.20;;;8.87;;
5191;SDS011;2615;44.524;11.284;2023-08-20T13:31:09;10.50;;;9.40;;
5191;SDS011;2615;44.524;11.284;2023-08-20T13:33:37;11.10;;;10.07;;
5191;SDS011;2615;44.524;11.284;2023-08-20T13:36:05;10.10;;;9.03;;
5191;SDS011;2615;44.524;11.284;2023-08-20T13:38:34;10.50;;;9.27;;
5191;SDS011;2615;44.524;11.284;2023-08-20T13:41:02;11.20;;;9.87;;
5191;SDS011;2615;44.524;11.284;2023-08-20T13:43:30;10.73;;;9.73;;
5191;SDS011;2615;44.524;11.284;2023-08-20T13:46:00;12.63;;;10.27;;
5191;SDS011;2615;44.524;11.284;2023-08-20T13:48:29;11.43;;;8.97;;
5191;SDS011;2615;44.524;11.284;2023-08-20T13:50:57;10.73;;;9.73;;
5191;SDS011;2615;44.524;11.284;2023-08-20T13:53:25;11.70;;;9.30;;
5191;SDS011;2615;44.524;11.284;2023-08-20T13:55:53;13.20;;;10.07;;
5191;SDS011;2615;44.524;11.284;2023-08-20T13:58:21;9.27;;;8.33;;
5191;SDS011;2615;44.524;11.284;2023-08-20T14:00:49;9.90;;;8.90;;
5191;SDS011;2615;44.524;11.284;2023-08-20T14:03:19;10.67;;;9.67;;
5191;SDS011;2615;44.524;11.284;2023-08-20T14:05:47;9.27;;;8.30;;
5191;SDS011;2615;44.524;11.284;2023-08-20T14:08:15;11.87;;;8.90;;
5191;SDS011;2615;44.524;11.284;2023-08-20T14:10:43;11.53;;;8.77;;
5191;SDS011;2615;44.524;11.284;2023-08-20T14:13:11;9.57;;;8.67;;
5191;SDS011;2615;44.524;11.284;2023-08-20T14:15:39;9.73;;;8.83;;
5191;SDS011;2615;44.524;11.284;2023-08-20T14:18:08;9.63;;;8.73;;
5191;SDS011;2615;44.524;11.284;2023-08-20T14:20:37;10.33;;;8.97;;
5191;SDS011;2615;44.524;11.284;2023-08-20T14:23:05;9.80;;;8.70;;
5191;SDS011;2615;44.524;11.284;2023-08-20T14:25:33;12.00;;;10.10;;
5191;SDS011;2615;44.524;11.284;2023-08-20T14:28:02;9.87;;;7.60;;
5191;SDS011;2615;44.524;11.284;2023-08-20T14:30:30;11.90;;;8.87;;
5191;SDS011;2615;44.524;11.284;2023-08-20T14:32:58;13.30;;;8.90;;
5191;SDS011;2615;44.524;11.284;2023-08-20T14:35:26;9.30;;;8.33;;
5191;SDS011;2615;44.524;11.284;2023-08-20T14:37:56;16.70;;;9.77;;
5191;SDS011;2615;44.524;11.284;2023-08-20T14:40:24;10.60;;;8.67;;
5191;SDS011;2615;44.524;11.284;2023-08-20T14:42:52;9.83;;;8.83;;
5191;SDS011;2615;44.524;11.284;2023-08-20T14:45:20;10.87;;;8.97;;
5191;SDS011;2615;44.524;11.284;2023-08-20T14:47:48;8.93;;;8.03;;
5191;SDS011;2615;44.524;11.284;2023-08-20T14:50:17;12.23;;;9.50;;
5191;SDS011;2615;44.524;11.284;2023-08-20T14:52:45;10.73;;;9.63;;